EWG59M EDDM-EDDK
Flight info
| Callsign | EWG59M |
|---|---|
| Flight time | 0h 40m |
| Altitude | 24000 |
| Route | GIVMI1N GIVMI Y101 ERNAS T161 GOLMO DCT AKANU L603 RATIM DCT ASKIK T840 GULKO GULKO1B |
| Aircraft | A320/M-SDE3FGHIRWY/LB1 |
Departure
| Time | 2026-05-06 19:49 |
|---|---|
| Airport | Munich Airport (EDDM) |
Arrival
| Time | 2026-05-06 20:29 |
|---|---|
| Airport | Cologne Bonn Airport (EDDK) |
| Time | Latitude | Longitude | Altitude | Speed | Heading |
|---|---|---|---|---|---|
| 2026-05-06 19:11 | 48.35089 | 11.78349 | 1486 ft | 0 kts | 83° |
| 2026-05-06 19:35 | 48.35088 | 11.78336 | 1485 ft | 4 kts | 83° |
| 2026-05-06 19:35 | 48.35085 | 11.78295 | 1480 ft | 4 kts | 83° |
| 2026-05-06 19:36 | 48.35082 | 11.78263 | 1472 ft | 4 kts | 89° |
| 2026-05-06 19:36 | 48.35086 | 11.78226 | 1474 ft | 4 kts | 126° |
| 2026-05-06 19:36 | 48.35106 | 11.78204 | 1471 ft | 4 kts | 168° |
| 2026-05-06 19:36 | 48.35131 | 11.78199 | 1471 ft | 3 kts | 173° |
| 2026-05-06 19:37 | 48.35134 | 11.78198 | 1471 ft | 0 kts | 173° |
| 2026-05-06 19:40 | 48.35128 | 11.78199 | 1485 ft | 2 kts | 173° |
| 2026-05-06 19:40 | 48.35109 | 11.78189 | 1485 ft | 3 kts | 200° |
| 2026-05-06 19:40 | 48.35109 | 11.78205 | 1485 ft | 1 kts | 53° |
| 2026-05-06 19:40 | 48.35149 | 11.78196 | 1478 ft | 12 kts | 352° |
| 2026-05-06 19:41 | 48.35199 | 11.78099 | 1478 ft | 14 kts | 262° |
| 2026-05-06 19:41 | 48.35185 | 11.77955 | 1477 ft | 14 kts | 263° |
| 2026-05-06 19:41 | 48.35206 | 11.77819 | 1480 ft | 14 kts | 319° |
| 2026-05-06 19:41 | 48.35305 | 11.77788 | 1477 ft | 15 kts | 353° |
| 2026-05-06 19:42 | 48.35413 | 11.77772 | 1475 ft | 17 kts | 353° |
| 2026-05-06 19:42 | 48.35533 | 11.77751 | 1481 ft | 18 kts | 353° |
| 2026-05-06 19:42 | 48.35663 | 11.77728 | 1485 ft | 20 kts | 353° |
| 2026-05-06 19:42 | 48.35767 | 11.77713 | 1481 ft | 11 kts | 351° |
| 2026-05-06 19:43 | 48.35836 | 11.77698 | 1476 ft | 9 kts | 353° |
| 2026-05-06 19:43 | 48.35898 | 11.77688 | 1478 ft | 10 kts | 353° |
| 2026-05-06 19:43 | 48.35978 | 11.77674 | 1485 ft | 11 kts | 353° |
| 2026-05-06 19:43 | 48.36067 | 11.77675 | 1485 ft | 13 kts | 24° |
| 2026-05-06 19:44 | 48.36085 | 11.77797 | 1481 ft | 15 kts | 84° |
| 2026-05-06 19:44 | 48.36101 | 11.78018 | 1480 ft | 25 kts | 83° |
| 2026-05-06 19:44 | 48.36121 | 11.78273 | 1472 ft | 23 kts | 83° |
| 2026-05-06 19:44 | 48.36139 | 11.78506 | 1476 ft | 22 kts | 83° |
| 2026-05-06 19:45 | 48.36156 | 11.78729 | 1485 ft | 21 kts | 84° |
| 2026-05-06 19:45 | 48.36172 | 11.78936 | 1485 ft | 19 kts | 83° |
| 2026-05-06 19:45 | 48.36189 | 11.79153 | 1485 ft | 22 kts | 83° |
| 2026-05-06 19:45 | 48.36205 | 11.79371 | 1485 ft | 21 kts | 83° |
| 2026-05-06 19:46 | 48.36224 | 11.79614 | 1479 ft | 23 kts | 83° |
| 2026-05-06 19:46 | 48.36242 | 11.79848 | 1483 ft | 22 kts | 83° |
| 2026-05-06 19:46 | 48.36259 | 11.80072 | 1485 ft | 22 kts | 83° |
| 2026-05-06 19:46 | 48.36277 | 11.80292 | 1485 ft | 20 kts | 83° |
| 2026-05-06 19:47 | 48.36292 | 11.80483 | 1480 ft | 14 kts | 80° |
| 2026-05-06 19:47 | 48.36359 | 11.80496 | 1485 ft | 12 kts | 310° |
| 2026-05-06 19:47 | 48.36408 | 11.80342 | 1485 ft | 21 kts | 293° |
| 2026-05-06 19:47 | 48.36464 | 11.80144 | 1484 ft | 21 kts | 293° |
| 2026-05-06 19:48 | 48.36509 | 11.79928 | 1485 ft | 27 kts | 277° |
| 2026-05-06 19:48 | 48.36487 | 11.79496 | 1485 ft | 68 kts | 263° |
| 2026-05-06 19:48 | 48.36406 | 11.78467 | 1485 ft | 127 kts | 263° |
| 2026-05-06 19:48 | 48.36300 | 11.77103 | 2012 ft | 130 kts | 263° |
| 2026-05-06 19:49 | 48.36203 | 11.75792 | 2692 ft | 125 kts | 264° |
| 2026-05-06 19:49 | 48.36102 | 11.74397 | 2926 ft | 147 kts | 264° |
| 2026-05-06 19:49 | 48.35981 | 11.72719 | 3204 ft | 170 kts | 265° |
| 2026-05-06 19:49 | 48.35840 | 11.70846 | 3581 ft | 192 kts | 264° |
| 2026-05-06 19:50 | 48.35720 | 11.68785 | 4204 ft | 203 kts | 274° |
| 2026-05-06 19:50 | 48.36134 | 11.66744 | 4965 ft | 212 kts | 297° |
| 2026-05-06 19:50 | 48.36935 | 11.64766 | 5494 ft | 232 kts | 300° |
| 2026-05-06 19:50 | 48.37813 | 11.62692 | 6167 ft | 244 kts | 299° |
| 2026-05-06 19:51 | 48.38727 | 11.60499 | 6976 ft | 250 kts | 298° |
| 2026-05-06 19:51 | 48.39654 | 11.58253 | 7769 ft | 256 kts | 297° |
| 2026-05-06 19:51 | 48.40598 | 11.55951 | 8555 ft | 262 kts | 297° |
| 2026-05-06 19:51 | 48.41566 | 11.53581 | 9336 ft | 269 kts | 296° |
| 2026-05-06 19:52 | 48.42554 | 11.51151 | 10073 ft | 275 kts | 296° |
| 2026-05-06 19:52 | 48.43558 | 11.48670 | 10793 ft | 280 kts | 296° |
| 2026-05-06 19:52 | 48.44633 | 11.46185 | 11529 ft | 289 kts | 304° |
| 2026-05-06 19:52 | 48.46123 | 11.44079 | 12273 ft | 301 kts | 320° |
| 2026-05-06 19:53 | 48.48051 | 11.42590 | 12657 ft | 327 kts | 338° |
| 2026-05-06 19:53 | 48.50328 | 11.41661 | 12916 ft | 347 kts | 336° |
| 2026-05-06 19:53 | 48.52377 | 11.39886 | 13492 ft | 345 kts | 317° |
| 2026-05-06 19:53 | 48.54169 | 11.37483 | 14193 ft | 345 kts | 311° |
| 2026-05-06 19:54 | 48.55860 | 11.34887 | 14822 ft | 349 kts | 309° |
| 2026-05-06 19:54 | 48.57549 | 11.32228 | 15426 ft | 354 kts | 310° |
| 2026-05-06 19:54 | 48.59298 | 11.29548 | 15975 ft | 362 kts | 311° |
| 2026-05-06 19:54 | 48.61118 | 11.26877 | 16560 ft | 368 kts | 313° |
| 2026-05-06 19:55 | 48.63004 | 11.24215 | 17128 ft | 374 kts | 314° |
| 2026-05-06 19:55 | 48.64939 | 11.21551 | 17613 ft | 383 kts | 315° |
| 2026-05-06 19:55 | 48.66965 | 11.18789 | 17741 ft | 400 kts | 315° |
| 2026-05-06 19:55 | 48.69069 | 11.15922 | 17966 ft | 414 kts | 315° |
| 2026-05-06 19:56 | 48.71194 | 11.13020 | 18396 ft | 420 kts | 315° |
| 2026-05-06 19:56 | 48.73402 | 11.09993 | 18889 ft | 424 kts | 315° |
| 2026-05-06 19:56 | 48.75563 | 11.07016 | 19384 ft | 427 kts | 315° |
| 2026-05-06 19:56 | 48.77765 | 11.03970 | 19890 ft | 430 kts | 315° |
| 2026-05-06 19:57 | 48.79981 | 11.00898 | 20340 ft | 434 kts | 315° |
| 2026-05-06 19:57 | 48.82218 | 10.97791 | 20640 ft | 436 kts | 315° |
| 2026-05-06 19:57 | 48.84456 | 10.94677 | 20900 ft | 437 kts | 315° |
| 2026-05-06 19:57 | 48.86699 | 10.91555 | 21150 ft | 439 kts | 315° |
| 2026-05-06 19:58 | 48.88957 | 10.88413 | 21427 ft | 441 kts | 315° |
| 2026-05-06 19:58 | 48.91220 | 10.85260 | 21692 ft | 443 kts | 315° |
| 2026-05-06 19:58 | 48.93469 | 10.82122 | 21952 ft | 445 kts | 315° |
| 2026-05-06 19:58 | 48.95751 | 10.78928 | 22220 ft | 447 kts | 315° |
| 2026-05-06 19:59 | 48.98045 | 10.75713 | 22500 ft | 450 kts | 315° |
| 2026-05-06 19:59 | 49.00351 | 10.72477 | 22773 ft | 452 kts | 315° |
| 2026-05-06 19:59 | 49.02664 | 10.69223 | 23047 ft | 454 kts | 315° |
| 2026-05-06 19:59 | 49.04996 | 10.65943 | 23315 ft | 459 kts | 315° |
| 2026-05-06 20:00 | 49.07336 | 10.62598 | 23601 ft | 463 kts | 314° |
| 2026-05-06 20:00 | 49.09657 | 10.59192 | 23813 ft | 464 kts | 313° |
| 2026-05-06 20:00 | 49.11938 | 10.55784 | 23889 ft | 469 kts | 313° |
| 2026-05-06 20:00 | 49.14283 | 10.52251 | 23895 ft | 478 kts | 312° |
| 2026-05-06 20:01 | 49.16478 | 10.48528 | 23878 ft | 464 kts | 301° |
| 2026-05-06 20:01 | 49.18090 | 10.44318 | 23877 ft | 456 kts | 294° |
| 2026-05-06 20:01 | 49.19705 | 10.40145 | 23876 ft | 457 kts | 299° |
| 2026-05-06 20:01 | 49.21428 | 10.36047 | 23876 ft | 457 kts | 299° |
| 2026-05-06 20:02 | 49.23152 | 10.31965 | 23864 ft | 457 kts | 299° |
| 2026-05-06 20:02 | 49.24876 | 10.27881 | 23850 ft | 457 kts | 299° |
| 2026-05-06 20:02 | 49.26576 | 10.23847 | 23869 ft | 457 kts | 299° |
| 2026-05-06 20:02 | 49.28279 | 10.19751 | 23848 ft | 455 kts | 299° |
| 2026-05-06 20:03 | 49.29968 | 10.15663 | 23833 ft | 454 kts | 299° |
| 2026-05-06 20:03 | 49.31657 | 10.11582 | 23827 ft | 453 kts | 299° |
| 2026-05-06 20:03 | 49.33345 | 10.07505 | 23834 ft | 453 kts | 299° |
| 2026-05-06 20:03 | 49.35034 | 10.03427 | 23838 ft | 453 kts | 299° |
| 2026-05-06 20:04 | 49.36608 | 9.99257 | 23833 ft | 451 kts | 295° |
| 2026-05-06 20:04 | 49.38064 | 9.95007 | 23838 ft | 450 kts | 294° |
| 2026-05-06 20:04 | 49.39496 | 9.90803 | 23836 ft | 450 kts | 294° |
| 2026-05-06 20:04 | 49.40942 | 9.86546 | 23833 ft | 450 kts | 294° |
| 2026-05-06 20:05 | 49.42376 | 9.82266 | 23849 ft | 449 kts | 294° |
| 2026-05-06 20:05 | 49.43765 | 9.77977 | 23851 ft | 449 kts | 294° |
| 2026-05-06 20:05 | 49.45151 | 9.73675 | 23854 ft | 448 kts | 294° |
| 2026-05-06 20:05 | 49.46574 | 9.69415 | 23849 ft | 449 kts | 299° |
| 2026-05-06 20:06 | 49.48557 | 9.65701 | 23843 ft | 453 kts | 317° |
| 2026-05-06 20:06 | 49.51166 | 9.63002 | 23845 ft | 454 kts | 332° |
| 2026-05-06 20:06 | 49.54015 | 9.60889 | 23840 ft | 455 kts | 334° |
| 2026-05-06 20:06 | 49.56879 | 9.58818 | 23829 ft | 455 kts | 334° |
| 2026-05-06 20:07 | 49.59630 | 9.56343 | 23828 ft | 463 kts | 320° |
| 2026-05-06 20:07 | 49.61871 | 9.52864 | 23824 ft | 465 kts | 305° |
| 2026-05-06 20:07 | 49.63723 | 9.48764 | 23826 ft | 466 kts | 302° |
| 2026-05-06 20:07 | 49.65554 | 9.44629 | 23823 ft | 466 kts | 302° |
| 2026-05-06 20:08 | 49.67373 | 9.40501 | 23826 ft | 465 kts | 302° |
| 2026-05-06 20:08 | 49.69194 | 9.36370 | 23834 ft | 465 kts | 302° |
| 2026-05-06 20:08 | 49.71017 | 9.32236 | 23835 ft | 465 kts | 303° |
| 2026-05-06 20:08 | 49.72836 | 9.28107 | 23833 ft | 465 kts | 303° |
| 2026-05-06 20:09 | 49.74658 | 9.23974 | 23842 ft | 465 kts | 303° |
| 2026-05-06 20:09 | 49.76454 | 9.19890 | 23842 ft | 465 kts | 302° |
| 2026-05-06 20:09 | 49.78269 | 9.15753 | 23842 ft | 465 kts | 302° |
| 2026-05-06 20:09 | 49.80087 | 9.11606 | 23835 ft | 465 kts | 302° |
| 2026-05-06 20:10 | 49.81903 | 9.07458 | 23856 ft | 465 kts | 302° |
| 2026-05-06 20:10 | 49.83712 | 9.03316 | 23856 ft | 464 kts | 303° |
| 2026-05-06 20:10 | 49.85515 | 8.99171 | 23855 ft | 464 kts | 302° |
| 2026-05-06 20:10 | 49.87320 | 8.95017 | 23853 ft | 464 kts | 302° |
| 2026-05-06 20:11 | 49.89116 | 8.90875 | 23852 ft | 463 kts | 302° |
| 2026-05-06 20:11 | 49.90890 | 8.86783 | 23848 ft | 463 kts | 302° |
| 2026-05-06 20:11 | 49.92687 | 8.82632 | 23859 ft | 463 kts | 302° |
| 2026-05-06 20:11 | 49.94482 | 8.78479 | 23859 ft | 463 kts | 302° |
| 2026-05-06 20:12 | 49.96273 | 8.74327 | 23864 ft | 463 kts | 302° |
| 2026-05-06 20:12 | 49.98064 | 8.70170 | 23866 ft | 463 kts | 302° |
| 2026-05-06 20:12 | 49.99855 | 8.66008 | 23863 ft | 463 kts | 302° |
| 2026-05-06 20:12 | 50.01650 | 8.61848 | 23862 ft | 463 kts | 303° |
| 2026-05-06 20:13 | 50.03677 | 8.57961 | 23856 ft | 464 kts | 313° |
| 2026-05-06 20:13 | 50.06088 | 8.54607 | 23855 ft | 466 kts | 322° |
| 2026-05-06 20:13 | 50.08775 | 8.51910 | 23854 ft | 467 kts | 331° |
| 2026-05-06 20:13 | 50.11745 | 8.49875 | 23850 ft | 467 kts | 340° |
| 2026-05-06 20:14 | 50.14820 | 8.48228 | 23853 ft | 467 kts | 340° |
| 2026-05-06 20:14 | 50.17895 | 8.46580 | 23853 ft | 467 kts | 340° |
| 2026-05-06 20:14 | 50.20955 | 8.44931 | 23853 ft | 460 kts | 340° |
| 2026-05-06 20:14 | 50.23934 | 8.43319 | 23862 ft | 450 kts | 340° |
| 2026-05-06 20:15 | 50.26892 | 8.41711 | 23724 ft | 451 kts | 339° |
| 2026-05-06 20:15 | 50.29750 | 8.39774 | 22974 ft | 446 kts | 331° |
| 2026-05-06 20:15 | 50.32387 | 8.37263 | 22156 ft | 442 kts | 326° |
| 2026-05-06 20:15 | 50.34963 | 8.34673 | 21362 ft | 439 kts | 326° |
| 2026-05-06 20:16 | 50.37492 | 8.32141 | 20611 ft | 435 kts | 326° |
| 2026-05-06 20:16 | 50.40033 | 8.29602 | 19855 ft | 432 kts | 325° |
| 2026-05-06 20:16 | 50.42555 | 8.27090 | 19116 ft | 428 kts | 325° |
| 2026-05-06 20:16 | 50.45060 | 8.24590 | 18400 ft | 425 kts | 325° |
| 2026-05-06 20:17 | 50.47521 | 8.22049 | 17623 ft | 421 kts | 320° |
| 2026-05-06 20:17 | 50.49575 | 8.18843 | 16820 ft | 414 kts | 305° |
| 2026-05-06 20:17 | 50.50982 | 8.14941 | 15998 ft | 410 kts | 291° |
| 2026-05-06 20:17 | 50.52059 | 8.10805 | 15194 ft | 408 kts | 290° |
| 2026-05-06 20:18 | 50.53120 | 8.06672 | 14437 ft | 407 kts | 290° |
| 2026-05-06 20:18 | 50.54159 | 8.02607 | 13720 ft | 405 kts | 290° |
| 2026-05-06 20:18 | 50.55201 | 7.98517 | 12940 ft | 402 kts | 290° |
| 2026-05-06 20:18 | 50.56223 | 7.94510 | 12199 ft | 398 kts | 290° |
| 2026-05-06 20:19 | 50.57247 | 7.90495 | 11539 ft | 392 kts | 291° |
| 2026-05-06 20:19 | 50.58254 | 7.86543 | 10922 ft | 386 kts | 291° |
| 2026-05-06 20:19 | 50.59231 | 7.82708 | 10599 ft | 364 kts | 292° |
| 2026-05-06 20:19 | 50.60134 | 7.79168 | 10353 ft | 334 kts | 292° |
| 2026-05-06 20:20 | 50.60962 | 7.75905 | 10112 ft | 309 kts | 292° |
| 2026-05-06 20:20 | 50.61728 | 7.72879 | 9855 ft | 288 kts | 292° |
| 2026-05-06 20:20 | 50.62450 | 7.70023 | 9523 ft | 273 kts | 293° |
| 2026-05-06 20:20 | 50.63127 | 7.67345 | 9132 ft | 262 kts | 293° |
| 2026-05-06 20:21 | 50.63789 | 7.64726 | 8696 ft | 254 kts | 293° |
| 2026-05-06 20:21 | 50.64429 | 7.62179 | 8258 ft | 248 kts | 293° |
| 2026-05-06 20:21 | 50.65069 | 7.59636 | 7823 ft | 251 kts | 293° |
| 2026-05-06 20:21 | 50.65714 | 7.57074 | 7365 ft | 252 kts | 292° |
| 2026-05-06 20:22 | 50.66357 | 7.54518 | 6867 ft | 249 kts | 292° |
| 2026-05-06 20:22 | 50.66991 | 7.51990 | 6378 ft | 247 kts | 292° |
| 2026-05-06 20:22 | 50.67614 | 7.49485 | 5910 ft | 243 kts | 292° |
| 2026-05-06 20:22 | 50.68222 | 7.47045 | 5514 ft | 235 kts | 294° |
| 2026-05-06 20:23 | 50.68814 | 7.44681 | 5129 ft | 228 kts | 294° |
| 2026-05-06 20:23 | 50.69381 | 7.42416 | 4762 ft | 222 kts | 294° |
| 2026-05-06 20:23 | 50.69938 | 7.40187 | 4453 ft | 217 kts | 294° |
| 2026-05-06 20:23 | 50.70622 | 7.38131 | 4287 ft | 207 kts | 310° |
| 2026-05-06 20:24 | 50.71620 | 7.36574 | 4066 ft | 200 kts | 319° |
| 2026-05-06 20:24 | 50.72644 | 7.35113 | 3809 ft | 197 kts | 319° |
| 2026-05-06 20:24 | 50.73642 | 7.33683 | 3581 ft | 190 kts | 319° |
| 2026-05-06 20:24 | 50.74605 | 7.32301 | 3301 ft | 184 kts | 319° |
| 2026-05-06 20:25 | 50.75540 | 7.30957 | 3053 ft | 179 kts | 319° |
| 2026-05-06 20:25 | 50.76446 | 7.29655 | 2822 ft | 173 kts | 319° |
| 2026-05-06 20:25 | 50.77322 | 7.28394 | 2578 ft | 167 kts | 319° |
| 2026-05-06 20:25 | 50.78156 | 7.27193 | 2356 ft | 162 kts | 320° |
| 2026-05-06 20:26 | 50.78959 | 7.26037 | 2137 ft | 149 kts | 319° |
| 2026-05-06 20:26 | 50.79706 | 7.24961 | 1935 ft | 142 kts | 319° |
| 2026-05-06 20:26 | 50.80424 | 7.23925 | 1751 ft | 138 kts | 320° |
| 2026-05-06 20:26 | 50.81136 | 7.22901 | 1567 ft | 140 kts | 319° |
| 2026-05-06 20:27 | 50.81866 | 7.21847 | 1367 ft | 143 kts | 318° |
| 2026-05-06 20:27 | 50.82605 | 7.20782 | 1149 ft | 145 kts | 318° |
| 2026-05-06 20:27 | 50.83339 | 7.19721 | 944 ft | 144 kts | 318° |
| 2026-05-06 20:27 | 50.84067 | 7.18670 | 730 ft | 140 kts | 318° |
| 2026-05-06 20:28 | 50.84777 | 7.17640 | 536 ft | 139 kts | 317° |
| 2026-05-06 20:28 | 50.85494 | 7.16603 | 373 ft | 141 kts | 317° |
| 2026-05-06 20:28 | 50.86173 | 7.15624 | 292 ft | 114 kts | 317° |
| 2026-05-06 20:28 | 50.86669 | 7.14905 | 272 ft | 87 kts | 317° |
| 2026-05-06 20:29 | 50.87079 | 7.14312 | 252 ft | 73 kts | 317° |
| 2026-05-06 20:29 | 50.87420 | 7.13817 | 241 ft | 61 kts | 317° |
| 2026-05-06 20:29 | 50.87711 | 7.13396 | 239 ft | 46 kts | 317° |
| 2026-05-06 20:29 | 50.87845 | 7.13188 | 239 ft | 14 kts | 296° |
| 2026-05-06 20:30 | 50.87832 | 7.13032 | 238 ft | 15 kts | 255° |
| 2026-05-06 20:30 | 50.87797 | 7.12810 | 232 ft | 4 kts | 256° |
| 2026-05-06 20:30 | 50.87795 | 7.12799 | 232 ft | 0 kts | 256° |
| 2026-05-06 20:31 | 50.87792 | 7.12780 | 232 ft | 3 kts | 256° |
| 2026-05-06 20:31 | 50.87788 | 7.12757 | 234 ft | 2 kts | 256° |
| 2026-05-06 20:31 | 50.87784 | 7.12730 | 232 ft | 5 kts | 255° |
| 2026-05-06 20:32 | 50.87774 | 7.12673 | 235 ft | 5 kts | 255° |
| 2026-05-06 20:32 | 50.87770 | 7.12633 | 233 ft | 2 kts | 271° |
| 2026-05-06 20:32 | 50.87771 | 7.12606 | 232 ft | 4 kts | 274° |
| 2026-05-06 20:32 | 50.87774 | 7.12567 | 234 ft | 3 kts | 282° |
| 2026-05-06 20:33 | 50.87779 | 7.12543 | 232 ft | 2 kts | 286° |
| 2026-05-06 20:33 | 50.87781 | 7.12533 | 232 ft | 0 kts | 287° |
| 2026-05-06 20:33 | 50.87786 | 7.12507 | 232 ft | 4 kts | 287° |
| 2026-05-06 20:33 | 50.87791 | 7.12475 | 233 ft | 2 kts | 285° |
| 2026-05-06 20:34 | 50.87795 | 7.12459 | 233 ft | 2 kts | 288° |
| 2026-05-06 20:34 | 50.87799 | 7.12439 | 232 ft | 1 kts | 288° |
| 2026-05-06 20:34 | 50.87803 | 7.12420 | 232 ft | 1 kts | 288° |
| 2026-05-06 20:34 | 50.87803 | 7.12419 | 232 ft | 0 kts | 288° |